Vancouver, WA (98661)

2:51 PM PDT on October 20, 2014 (GMT -0700)
Bagley Downs | Change Station
CLOSE
Current Station
Personal Weather Station
Location: Vancouver, WA
Elevation: 171 ft
Nearby Weather Stations

Elev 171 ft 45.64 °N, 122.63 °W | Updated 7 minutes ago

Scattered Clouds
Scattered Clouds
63.3 °F
Feels Like 63.3 °F
N
7.8
Wind Variable Wind from SSW

Today
High -- | Low -- °F
--% Chance of Precip.
Yesterday
High -- | Low -- °F
Precip. -- in
7:33 AM 6:15 PM
Waning Crescent, 9% visible
Pressure 29.79 in
Visibility 10.0 miles
Clouds Few 1700 ft
Scattered Clouds 8000 ft
Scattered Clouds 11000 ft
Dew Point 57 °F
Humidity 79%
Rainfall 0.02 in
Snow Depth Not available.
UV 3 out of 12
Pollen .40 out of 12
Air Quality Not available.
Flu Activity Sporadic
METAR KVUO 202053Z AUTO 17008KT 10SM FEW017 SCT080 SCT110 17/12 A2979 RMK AO2 SLP088 T01720122 50002

More Conditions Fewer Conditions

Pressure 29.79 in
Visibility 10.0 miles
Clouds Few 1700 ft
Scattered Clouds 8000 ft
Scattered Clouds 11000 ft
Dew Point 57 °F
Humidity 79%
Rainfall 0.02 in
Snow Depth Not available.
UV 3 out of 12
Pollen .40 out of 12
Air Quality Not available.
Flu Activity Sporadic
METAR KVUO 202053Z AUTO 17008KT 10SM FEW017 SCT080 SCT110 17/12 A2979 RMK AO2 SLP088 T01720122 50002

More Conditions Fewer Conditions

Nowcast | as of 2:13 PM PDT on October 20, 2014

At 210 PM...a line of moderate to heavy showers is leaving the Coast Range and will shortly cross I-5 in southwest Washington and highways 26...30...and I-5 across northwest Oregon. Expect a brief period of reduced visibility from the rain and Road spray. Hydroplaning is also possible as water ponds on roadways.

×

10-Day Weather Forecast

Almanac

Astronomy

Oct. 20, 2014 Rise Set
Actual Time 7:33 AM PDT 6:15 PM PDT
Civil Twilight 7:03 AM PDT 6:46 PM PDT
Nautical Twilight 6:29 AM PDT 7:20 PM PDT
Astronomical Twilight 5:54 AM PDT 7:54 PM PDT
Moon 4:18 AM PDT 4:49 PM PDT
Length of Visible Light 11h 42m
Length of Day
10h 42m
Waning Crescent, 9% of the Moon is Illuminated
Today
Waning Crescent
Oct 23
New
Oct 30
First Quarter
Nov 6
Full
Nov 14
Last Quarter

Today's Extremes

State Highs State Lows

Community

WunderPhotos

Upload Photos

1,763,527 photos uploaded!

WunderBlogs® & News

Nearby

Snow Depth

Station Depth Elevation
June Lake 0 in 3340 ft
Sheep Canyon 0 in 4030 ft
Swift Creek 0 in 3770 ft
Spencer Meadow 0 in 3400 ft
Surprise Lakes 1 in 4250 ft

Earthquake Activity

City Distance Mag. Time & Date
No recent earthquake activity has been reported nearby.
Minimum magnitude displayed is 2.5.

Coastal Water Temperatures

Place Temperature
No Stations Reporting

Nearby Weather Stations